Terminal Aerodrome Forecast
Issued by NWS

Home | Current Version | Previous Version | Text Only | Print | Product List | Glossary On
Versions: 1 2 3 4 5 6 7 8 9 10 11 12 13 14 15 16 17
612
FTUS43 KGRR 270529
TAFLAN
TAF
KLAN 270529Z 2706/2806 21008KT P6SM BKN080
     FM271100 23012G20KT P6SM BKN080
     FM280000 22004KT P6SM VCSH OVC040=

USA.gov is the U.S. government's official web portal to all federal, state and local government web resources and services.